KR-0339 weather

Public forecast

Using degrees Celsius for public forecast. Weather courtesy of forecast.io.

Closest aviation weather report (METAR) to Haeundae Hillstate We’ve Apartments Heliports

Closest report is Gimhae International Airport, 12.0 nm (22.3 km) W. Retrieved 2020/08/11 00:00 UTC (58 minutes ago):

RKPK 110000Z 18008KT 9999 FEW020 BKN030 29/25 Q1010 RMK CIG030 SLP106 8/500 9/600

Closest aviation forecast (TAF) to Haeundae Hillstate We’ve Apartments Heliports

Closest forecast is Gimhae International Airport, 12.0 nm (22.3 km) W. Retrieved 2020-08-11 00:00 UTC (58 minutes ago):

TAF RKPK 102300Z 1100/1206 21006KT 9999 SCT030 BKN100 BKN200 TX31/1106Z TN24/1121Z TEMPO 1102/1112 4800 -RA BR SCT020 BKN030